Time,TemperatureF,DewpointF,PressureIn,WindDirection,WindDirectionDegrees,WindSpeedMPH,WindSpeedGustMPH,Humidity,HourlyPrecipIn,Conditions,Clouds,dailyrainin,SoftwareType,DateUTC
2014-09-22 00:02:00,71.8,52.7,29.74,WSW,248,0.0,0.0,51,0.00,SCT,,0.00,WeatherDisplay:10.37,2014-09-22 04:02:00,
2014-09-22 00:07:00,71.8,52.1,29.74,WSW,248,0.0,0.0,50,0.00,SCT,,0.00,WeatherDisplay:10.37,2014-09-22 04:07:00,
2014-09-22 00:12:00,71.4,50.1,29.74,WSW,248,0.0,0.0,47,0.00,SCT,,0.00,WeatherDisplay:10.37,2014-09-22 04:12:00,
2014-09-22 00:17:00,71.6,49.1,29.74,WSW,248,0.0,0.0,45,0.00,SCT,,0.00,WeatherDisplay:10.37,2014-09-22 04:17:00,
2014-09-22 00:22:00,71.6,49.1,29.77,WSW,248,0.0,0.0,45,0.00,SCT,,0.00,WeatherDisplay:10.37,2014-09-22 04:22:00,
2014-09-22 00:25:00,71.4,49.0,29.77,WSW,248,0.0,0.0,45,0.00,SCT,,0.00,WeatherDisplay:10.37,2014-09-22 04:25:00,
2014-09-22 00:30:00,71.2,48.8,29.77,WSW,248,0.0,0.0,45,0.00,SCT,,0.00,WeatherDisplay:10.37,2014-09-22 04:30:00,
2014-09-22 00:33:00,71.1,48.6,29.77,WSW,248,0.0,0.0,45,0.00,SCT,,0.00,WeatherDisplay:10.37,2014-09-22 04:33:00,
2014-09-22 00:41:00,70.9,47.9,29.77,WSW,248,0.0,0.0,44,0.00,SCT,,0.00,WeatherDisplay:10.37,2014-09-22 04:41:00,
2014-09-22 00:45:00,70.7,47.7,29.77,WSW,248,0.0,0.0,44,0.00,SCT,,0.00,WeatherDisplay:10.37,2014-09-22 04:45:00,
2014-09-22 00:50:00,70.3,48.0,29.77,WSW,248,0.0,0.0,45,0.00,SCT,,0.00,WeatherDisplay:10.37,2014-09-22 04:50:00,
2014-09-22 00:55:00,70.0,47.7,29.77,WSW,248,0.0,0.0,45,0.00,SCT,,0.00,WeatherDisplay:10.37,2014-09-22 04:55:00,
2014-09-22 01:00:00,69.8,46.9,29.77,WSW,247,0.0,0.0,44,0.00,SCT,,0.00,WeatherDisplay:10.37,2014-09-22 05:00:00,
2014-09-22 01:05:00,69.8,46.9,29.77,WSW,247,0.0,0.0,44,0.00,SCT,,0.00,WeatherDisplay:10.37,2014-09-22 05:05:00,
2014-09-22 01:11:00,69.4,47.2,29.77,WSW,247,0.0,0.0,45,0.00,SCT,,0.00,WeatherDisplay:10.37,2014-09-22 05:11:00,
2014-09-22 01:16:00,69.3,46.4,29.77,WSW,248,0.0,0.0,44,0.00,SCT,,0.00,WeatherDisplay:10.37,2014-09-22 05:16:00,
2014-09-22 01:21:00,69.4,46.0,29.77,WSW,248,0.0,0.0,43,0.00,SCT,,0.00,WeatherDisplay:10.37,2014-09-22 05:21:00,
2014-09-22 01:26:00,69.4,46.0,29.77,WSW,248,0.0,0.0,43,0.00,SCT,,0.00,WeatherDisplay:10.37,2014-09-22 05:26:00,
2014-09-22 01:31:00,69.3,45.8,29.77,WSW,248,0.0,0.0,43,0.00,SCT,,0.00,WeatherDisplay:10.37,2014-09-22 05:31:00,
2014-09-22 01:36:00,68.9,46.7,29.80,WSW,248,0.0,0.0,45,0.00,SCT,,0.00,WeatherDisplay:10.37,2014-09-22 05:36:00,
2014-09-22 01:41:00,68.5,46.3,29.80,WSW,248,0.0,0.0,45,0.00,SCT,,0.00,WeatherDisplay:10.37,2014-09-22 05:41:00,
2014-09-22 01:46:00,68.4,46.2,29.80,WSW,247,0.0,0.0,45,0.00,SCT,,0.00,WeatherDisplay:10.37,2014-09-22 05:46:00,
2014-09-22 01:51:00,68.0,46.4,29.80,WSW,247,0.0,0.0,46,0.00,SCT,,0.00,WeatherDisplay:10.37,2014-09-22 05:51:00,
2014-09-22 01:53:00,67.8,46.3,29.80,WSW,247,0.0,0.0,46,0.00,SCT,,0.00,WeatherDisplay:10.37,2014-09-22 05:53:00,
2014-09-22 01:55:00,67.8,46.3,29.80,WSW,248,0.0,0.0,46,0.00,SCT,,0.00,WeatherDisplay:10.37,2014-09-22 05:55:00,
2014-09-22 02:00:00,67.6,46.1,29.80,WSW,247,0.0,0.0,46,0.00,SCT,,0.00,WeatherDisplay:10.37,2014-09-22 06:00:00,
2014-09-22 02:05:00,67.5,45.9,29.80,WSW,247,0.0,0.0,46,0.00,FEW,,0.00,WeatherDisplay:10.37,2014-09-22 06:05:00,
2014-09-22 02:10:00,67.5,45.9,29.80,WSW,247,0.0,0.0,46,0.00,FEW,,0.00,WeatherDisplay:10.37,2014-09-22 06:10:00,
2014-09-22 02:15:00,67.3,45.2,29.80,WSW,247,0.0,0.0,45,0.00,FEW,,0.00,WeatherDisplay:10.37,2014-09-22 06:15:00,
2014-09-22 02:20:00,67.1,45.0,29.80,WSW,248,0.0,0.0,45,0.00,FEW,,0.00,WeatherDisplay:10.37,2014-09-22 06:20:00,
2014-09-22 02:25:00,66.9,45.5,29.80,WSW,248,0.0,0.0,46,0.00,FEW,,0.00,WeatherDisplay:10.37,2014-09-22 06:25:00,
2014-09-22 02:30:00,66.7,45.3,29.80,WSW,247,0.0,0.0,46,0.00,FEW,,0.00,WeatherDisplay:10.37,2014-09-22 06:30:00,
2014-09-22 02:35:00,66.4,45.0,29.80,WSW,248,0.0,0.0,46,0.00,FEW,,0.00,WeatherDisplay:10.37,2014-09-22 06:35:00,
2014-09-22 02:40:00,66.0,44.6,29.80,WSW,248,0.0,0.0,46,0.00,FEW,,0.00,WeatherDisplay:10.37,2014-09-22 06:40:00,
2014-09-22 02:45:00,65.8,45.0,29.80,WSW,247,0.0,0.0,47,0.00,FEW,,0.00,WeatherDisplay:10.37,2014-09-22 06:45:00,
2014-09-22 02:51:00,65.7,44.9,29.80,WSW,247,0.0,0.0,47,0.00,FEW,,0.00,WeatherDisplay:10.37,2014-09-22 06:51:00,
2014-09-22 02:56:00,65.1,45.5,29.80,WSW,247,0.0,0.0,49,0.00,FEW,,0.00,WeatherDisplay:10.37,2014-09-22 06:56:00,
2014-09-22 03:01:00,64.9,45.3,29.80,WSW,247,0.0,0.0,49,0.00,CLR,,0.00,WeatherDisplay:10.37,2014-09-22 07:01:00,
2014-09-22 03:06:00,64.8,45.7,29.80,WSW,247,0.0,0.0,50,0.00,CLR,,0.00,WeatherDisplay:10.37,2014-09-22 07:06:00,
2014-09-22 03:11:00,64.6,45.5,29.80,WSW,247,0.0,0.0,50,0.00,CLR,,0.00,WeatherDisplay:10.37,2014-09-22 07:11:00,
2014-09-22 03:16:00,64.4,44.8,29.80,WSW,248,0.0,0.0,49,0.00,CLR,,0.00,WeatherDisplay:10.37,2014-09-22 07:16:00,
2014-09-22 03:21:00,64.6,45.0,29.80,WSW,248,0.0,0.0,49,0.00,CLR,,0.00,WeatherDisplay:10.37,2014-09-22 07:21:00,
2014-09-22 03:26:00,64.4,45.3,29.80,WSW,247,0.0,0.0,50,0.00,CLR,,0.00,WeatherDisplay:10.37,2014-09-22 07:26:00,
2014-09-22 03:31:00,64.2,45.2,29.80,WSW,247,0.0,0.0,50,0.00,CLR,,0.00,WeatherDisplay:10.37,2014-09-22 07:31:00,
2014-09-22 03:36:00,64.2,45.2,29.83,WSW,248,0.0,0.0,50,0.00,CLR,,0.00,WeatherDisplay:10.37,2014-09-22 07:36:00,
2014-09-22 03:42:00,64.2,44.6,29.83,WSW,247,0.0,0.0,49,0.00,CLR,,0.00,WeatherDisplay:10.37,2014-09-22 07:42:00,
2014-09-22 03:47:00,64.2,44.6,29.83,WSW,248,0.0,0.0,49,0.00,CLR,,0.00,WeatherDisplay:10.37,2014-09-22 07:47:00,
2014-09-22 03:52:00,64.2,44.6,29.83,WSW,247,0.0,0.0,49,0.00,CLR,,0.00,WeatherDisplay:10.37,2014-09-22 07:52:00,
2014-09-22 03:57:00,64.2,44.6,29.83,WSW,247,0.0,0.0,49,0.00,CLR,,0.00,WeatherDisplay:10.37,2014-09-22 07:57:00,
2014-09-22 04:02:00,64.2,44.6,29.83,WSW,247,0.0,0.0,49,0.00,CLR,,0.00,WeatherDisplay:10.37,2014-09-22 08:02:00,
2014-09-22 04:07:00,63.7,45.2,29.83,WSW,248,0.0,0.0,51,0.00,CLR,,0.00,WeatherDisplay:10.37,2014-09-22 08:07:00,
2014-09-22 04:12:00,63.5,45.0,29.83,WSW,247,0.0,0.0,51,0.00,CLR,,0.00,WeatherDisplay:10.37,2014-09-22 08:12:00,
2014-09-22 04:17:00,63.3,45.4,29.83,WSW,248,0.0,0.0,52,0.00,CLR,,0.00,WeatherDisplay:10.37,2014-09-22 08:17:00,
2014-09-22 04:22:00,62.8,45.4,29.83,WSW,247,0.0,0.0,53,0.00,CLR,,0.00,WeatherDisplay:10.37,2014-09-22 08:22:00,
2014-09-22 04:27:00,62.6,45.2,29.83,WSW,247,0.0,0.0,53,0.00,CLR,,0.00,WeatherDisplay:10.37,2014-09-22 08:27:00,
2014-09-22 04:32:00,62.4,45.1,29.83,WSW,247,0.0,0.0,53,0.00,CLR,,0.00,WeatherDisplay:10.37,2014-09-22 08:32:00,
2014-09-22 04:37:00,62.4,45.1,29.83,WSW,247,0.0,0.0,53,0.00,CLR,,0.00,WeatherDisplay:10.37,2014-09-22 08:37:00,
2014-09-22 04:40:00,62.2,44.9,29.83,WSW,247,0.0,0.0,53,0.00,CLR,,0.00,WeatherDisplay:10.37,2014-09-22 08:40:00,
2014-09-22 04:45:00,62.2,44.9,29.83,WSW,247,0.0,0.0,53,0.00,CLR,,0.00,WeatherDisplay:10.37,2014-09-22 08:45:00,
2014-09-22 04:50:00,62.1,44.7,29.83,WSW,247,0.0,0.0,53,0.00,CLR,,0.00,WeatherDisplay:10.37,2014-09-22 08:50:00,
2014-09-22 04:55:00,61.9,45.0,29.85,WSW,247,0.0,0.0,54,0.00,CLR,,0.00,WeatherDisplay:10.37,2014-09-22 08:55:00,
2014-09-22 05:00:00,61.7,44.9,29.85,WSW,247,0.0,0.0,54,0.00,CLR,,0.00,WeatherDisplay:10.37,2014-09-22 09:00:00,
2014-09-22 05:06:00,61.5,46.1,29.85,WSW,248,0.0,0.0,57,0.00,CLR,,0.00,WeatherDisplay:10.37,2014-09-22 09:06:00,
2014-09-22 05:10:00,61.3,46.4,29.85,WSW,248,0.0,0.0,58,0.00,CLR,,0.00,WeatherDisplay:10.37,2014-09-22 09:10:00,
2014-09-22 05:15:00,61.2,46.3,29.85,WSW,247,0.0,0.0,58,0.00,CLR,,0.00,WeatherDisplay:10.37,2014-09-22 09:15:00,
2014-09-22 05:20:00,61.0,46.1,29.85,WSW,247,0.0,0.0,58,0.00,CLR,,0.00,WeatherDisplay:10.37,2014-09-22 09:20:00,
2014-09-22 05:25:00,60.8,46.4,29.85,WSW,247,0.0,0.0,59,0.00,CLR,,0.00,WeatherDisplay:10.37,2014-09-22 09:25:00,
2014-09-22 05:30:00,60.6,46.2,29.85,WSW,247,0.0,0.0,59,0.00,CLR,,0.00,WeatherDisplay:10.37,2014-09-22 09:30:00,
2014-09-22 05:35:00,60.1,46.1,29.85,WSW,247,0.0,0.0,60,0.00,CLR,,0.00,WeatherDisplay:10.37,2014-09-22 09:35:00,
2014-09-22 05:40:00,59.9,46.0,29.85,WSW,247,0.0,0.0,60,0.00,CLR,,0.00,WeatherDisplay:10.37,2014-09-22 09:40:00,
2014-09-22 05:45:00,59.7,46.2,29.85,WSW,247,0.0,0.0,61,0.00,CLR,,0.00,WeatherDisplay:10.37,2014-09-22 09:45:00,
2014-09-22 05:51:00,59.5,46.1,29.85,WSW,247,0.0,0.0,61,0.00,CLR,,0.00,WeatherDisplay:10.37,2014-09-22 09:51:00,
2014-09-22 05:55:00,59.2,46.2,29.88,WSW,247,0.0,0.0,62,0.00,CLR,,0.00,WeatherDisplay:10.37,2014-09-22 09:55:00,
2014-09-22 06:00:00,58.8,45.8,29.88,WSW,247,0.0,0.0,62,0.00,CLR,,0.00,WeatherDisplay:10.37,2014-09-22 10:00:00,
2014-09-22 06:05:00,58.3,45.7,29.88,WSW,247,0.0,0.0,63,0.00,CLR,,0.00,WeatherDisplay:10.37,2014-09-22 10:05:00,
2014-09-22 06:11:00,57.9,45.8,29.88,WSW,247,0.0,0.0,64,0.00,CLR,,0.00,WeatherDisplay:10.37,2014-09-22 10:11:00,
2014-09-22 06:16:00,57.7,46.0,29.88,WSW,247,0.0,0.0,65,0.00,CLR,,0.00,WeatherDisplay:10.37,2014-09-22 10:16:00,
2014-09-22 06:21:00,57.6,46.7,29.88,WSW,247,0.0,0.0,67,0.00,CLR,,0.00,WeatherDisplay:10.37,2014-09-22 10:21:00,
2014-09-22 06:26:00,57.4,46.9,29.88,WSW,247,0.0,0.0,68,0.00,CLR,,0.00,WeatherDisplay:10.37,2014-09-22 10:26:00,
2014-09-22 06:31:00,57.2,47.5,29.88,WSW,247,0.0,0.0,70,0.00,CLR,,0.00,WeatherDisplay:10.37,2014-09-22 10:31:00,
2014-09-22 06:36:00,57.2,48.3,29.88,WSW,247,0.0,0.0,72,0.00,CLR,,0.00,WeatherDisplay:10.37,2014-09-22 10:36:00,
2014-09-22 06:40:00,57.0,48.4,29.88,WSW,247,0.0,0.0,73,0.00,CLR,,0.00,WeatherDisplay:10.37,2014-09-22 10:40:00,
2014-09-22 06:45:00,56.8,48.6,29.88,WSW,247,0.0,0.0,74,0.00,CLR,,0.00,WeatherDisplay:10.37,2014-09-22 10:45:00,
2014-09-22 06:50:00,57.0,48.8,29.88,WSW,247,0.0,0.0,74,0.00,CLR,,0.00,WeatherDisplay:10.37,2014-09-22 10:50:00,
2014-09-22 06:56:00,57.2,49.0,29.88,WSW,247,0.0,0.0,74,0.00,CLR,,0.00,WeatherDisplay:10.37,2014-09-22 10:56:00,
2014-09-22 07:01:00,57.9,48.6,29.88,WSW,247,0.0,0.0,71,0.00,FEW,,0.00,WeatherDisplay:10.37,2014-09-22 11:01:00,
2014-09-22 07:06:00,58.6,48.5,29.88,WSW,248,0.0,0.0,69,0.00,FEW,,0.00,WeatherDisplay:10.37,2014-09-22 11:06:00,
2014-09-22 07:11:00,59.2,48.2,29.91,WSW,248,0.0,0.0,67,0.00,FEW,,0.00,WeatherDisplay:10.37,2014-09-22 11:11:00,
2014-09-22 07:16:00,59.5,47.8,29.91,WSW,247,0.0,0.0,65,0.00,FEW,,0.00,WeatherDisplay:10.37,2014-09-22 11:16:00,
2014-09-22 07:21:00,59.5,47.3,29.91,WSW,248,0.0,0.0,64,0.00,FEW,,0.00,WeatherDisplay:10.37,2014-09-22 11:21:00,
2014-09-22 07:26:00,59.7,47.5,29.91,WSW,248,0.0,0.0,64,0.00,FEW,,0.00,WeatherDisplay:10.37,2014-09-22 11:26:00,
2014-09-22 07:31:00,59.5,48.2,29.91,WSW,247,0.0,0.0,66,0.00,FEW,,0.00,WeatherDisplay:10.37,2014-09-22 11:31:00,
2014-09-22 07:36:00,59.2,48.2,29.91,WSW,248,0.0,0.0,67,0.00,FEW,,0.00,WeatherDisplay:10.37,2014-09-22 11:36:00,
2014-09-22 07:41:00,59.4,48.4,29.94,WSW,248,0.0,0.0,67,0.00,FEW,,0.00,WeatherDisplay:10.37,2014-09-22 11:41:00,
2014-09-22 07:46:00,59.5,48.6,29.94,WSW,248,0.0,0.0,67,0.00,FEW,,0.00,WeatherDisplay:10.37,2014-09-22 11:46:00,
2014-09-22 07:51:00,59.9,48.5,29.94,WSW,247,0.0,0.0,66,0.00,FEW,,0.00,WeatherDisplay:10.37,2014-09-22 11:51:00,
2014-09-22 07:56:00,60.1,48.3,29.94,WSW,247,0.0,0.0,65,0.00,FEW,,0.00,WeatherDisplay:10.37,2014-09-22 11:56:00,
2014-09-22 08:01:00,60.3,48.4,29.94,WSW,248,0.0,0.0,65,0.00,FEW,,0.00,WeatherDisplay:10.37,2014-09-22 12:01:00,
2014-09-22 08:06:00,60.8,49.0,29.94,WSW,247,0.0,0.0,65,0.00,FEW,,0.00,WeatherDisplay:10.37,2014-09-22 12:06:00,
2014-09-22 08:11:00,61.0,48.7,29.94,WSW,247,0.0,0.0,64,0.00,FEW,,0.00,WeatherDisplay:10.37,2014-09-22 12:11:00,
2014-09-22 08:16:00,61.3,49.1,29.94,WSW,247,0.0,0.0,64,0.00,FEW,,0.00,WeatherDisplay:10.37,2014-09-22 12:16:00,
2014-09-22 08:21:00,61.5,49.2,29.94,WSW,247,0.0,0.0,64,0.00,FEW,,0.00,WeatherDisplay:10.37,2014-09-22 12:21:00,
2014-09-22 08:26:00,61.9,49.1,29.94,WSW,247,0.0,0.0,63,0.00,FEW,,0.00,WeatherDisplay:10.37,2014-09-22 12:26:00,
2014-09-22 08:31:00,62.2,49.1,29.94,WSW,248,0.0,0.0,62,0.00,FEW,,0.00,WeatherDisplay:10.37,2014-09-22 12:31:00,
2014-09-22 08:36:00,62.4,49.2,29.94,WSW,248,0.0,0.0,62,0.00,FEW,,0.00,WeatherDisplay:10.37,2014-09-22 12:36:00,
2014-09-22 08:41:00,62.6,49.0,29.94,WSW,248,0.0,0.0,61,0.00,FEW,,0.00,WeatherDisplay:10.37,2014-09-22 12:41:00,
2014-09-22 08:46:00,62.8,49.1,29.94,WSW,247,0.0,0.0,61,0.00,FEW,,0.00,WeatherDisplay:10.37,2014-09-22 12:46:00,
2014-09-22 08:51:00,63.0,48.9,29.97,WSW,248,0.0,0.0,60,0.00,FEW,,0.00,WeatherDisplay:10.37,2014-09-22 12:51:00,
2014-09-22 08:56:00,63.0,48.4,29.97,WSW,248,0.0,0.0,59,0.00,FEW,,0.00,WeatherDisplay:10.37,2014-09-22 12:56:00,
2014-09-22 09:01:00,63.3,48.3,29.97,WSW,248,0.0,0.0,58,0.00,SCT,,0.00,WeatherDisplay:10.37,2014-09-22 13:01:00,
2014-09-22 09:06:00,63.5,48.5,29.97,WSW,248,0.0,0.0,58,0.00,SCT,,0.00,WeatherDisplay:10.37,2014-09-22 13:06:00,
2014-09-22 09:11:00,63.7,48.2,29.97,WSW,248,0.0,0.0,57,0.00,SCT,,0.00,WeatherDisplay:10.37,2014-09-22 13:11:00,
2014-09-22 09:16:00,63.9,48.3,29.97,WSW,247,0.0,0.0,57,0.00,SCT,,0.00,WeatherDisplay:10.37,2014-09-22 13:16:00,
2014-09-22 09:21:00,64.4,48.4,29.97,WSW,248,0.0,0.0,56,0.00,SCT,,0.00,WeatherDisplay:10.37,2014-09-22 13:21:00,
2014-09-22 09:26:00,64.6,47.1,29.97,WSW,248,0.0,0.0,53,0.00,SCT,,0.00,WeatherDisplay:10.37,2014-09-22 13:26:00,
2014-09-22 09:31:00,64.8,47.7,29.97,WSW,247,0.0,0.0,54,0.00,SCT,,0.00,WeatherDisplay:10.37,2014-09-22 13:31:00,
2014-09-22 09:36:00,64.9,46.9,29.97,WSW,248,0.0,0.0,52,0.00,SCT,,0.00,WeatherDisplay:10.37,2014-09-22 13:36:00,
2014-09-22 09:41:00,65.1,47.1,29.97,WSW,247,0.0,0.0,52,0.00,SCT,,0.00,WeatherDisplay:10.37,2014-09-22 13:41:00,
2014-09-22 09:46:00,65.3,47.2,29.97,WSW,248,0.0,0.0,52,0.00,SCT,,0.00,WeatherDisplay:10.37,2014-09-22 13:46:00,
2014-09-22 09:51:00,65.7,46.5,29.97,WSW,248,0.0,0.0,50,0.00,SCT,,0.00,WeatherDisplay:10.37,2014-09-22 13:51:00,
2014-09-22 09:56:00,66.4,46.6,29.97,WSW,248,0.0,0.0,49,0.00,SCT,,0.00,WeatherDisplay:10.37,2014-09-22 13:56:00,
2014-09-22 10:01:00,66.7,47.0,29.97,WSW,248,0.0,0.0,49,0.00,FEW,,0.00,WeatherDisplay:10.37,2014-09-22 14:01:00,
2014-09-22 10:06:00,67.3,46.4,30.00,WSW,248,0.0,0.0,47,0.00,FEW,,0.00,WeatherDisplay:10.37,2014-09-22 14:06:00,
2014-09-22 10:11:00,67.5,45.9,30.00,WSW,248,0.0,0.0,46,0.00,FEW,,0.00,WeatherDisplay:10.37,2014-09-22 14:11:00,
2014-09-22 10:16:00,67.6,46.1,30.00,WSW,248,0.0,0.0,46,0.00,FEW,,0.00,WeatherDisplay:10.37,2014-09-22 14:16:00,
2014-09-22 10:21:00,67.8,45.7,30.00,WSW,248,0.0,0.0,45,0.00,FEW,,0.00,WeatherDisplay:10.37,2014-09-22 14:21:00,
2014-09-22 10:26:00,68.0,45.9,30.00,WSW,248,0.0,0.0,45,0.00,FEW,,0.00,WeatherDisplay:10.37,2014-09-22 14:26:00,
2014-09-22 10:31:00,68.2,44.8,30.00,WSW,247,0.0,0.0,43,0.00,FEW,,0.00,WeatherDisplay:10.37,2014-09-22 14:31:00,
2014-09-22 10:36:00,68.2,44.8,30.00,WSW,247,0.0,0.0,43,0.00,FEW,,0.00,WeatherDisplay:10.37,2014-09-22 14:36:00,
2014-09-22 10:41:00,68.9,46.1,30.00,WSW,247,0.0,0.0,44,0.00,FEW,,0.00,WeatherDisplay:10.37,2014-09-22 14:41:00,
2014-09-22 10:46:00,68.7,44.1,30.00,WSW,248,0.0,0.0,41,0.00,FEW,,0.00,WeatherDisplay:10.37,2014-09-22 14:46:00,
2014-09-22 10:51:00,68.0,45.9,30.00,WSW,248,0.0,0.0,45,0.00,FEW,,0.00,WeatherDisplay:10.37,2014-09-22 14:51:00,
2014-09-22 10:56:00,66.9,44.9,30.00,WSW,248,0.0,0.0,45,0.00,FEW,,0.00,WeatherDisplay:10.37,2014-09-22 14:56:00,
2014-09-22 11:01:00,66.2,44.2,30.00,WSW,247,0.0,0.0,45,0.00,FEW,,0.00,WeatherDisplay:10.37,2014-09-22 15:01:00,
2014-09-22 11:06:00,67.3,45.2,30.00,WSW,248,0.0,0.0,45,0.00,FEW,,0.00,WeatherDisplay:10.37,2014-09-22 15:06:00,
2014-09-22 11:11:00,67.8,45.7,30.00,WSW,248,0.0,0.0,45,0.00,FEW,,0.00,WeatherDisplay:10.37,2014-09-22 15:11:00,
2014-09-22 11:16:00,68.5,46.3,30.00,WSW,248,0.0,0.0,45,0.00,FEW,,0.00,WeatherDisplay:10.37,2014-09-22 15:16:00,
2014-09-22 11:21:00,68.5,46.3,30.00,WSW,247,0.0,0.0,45,0.00,FEW,,0.00,WeatherDisplay:10.37,2014-09-22 15:21:00,
2014-09-22 11:26:00,68.9,46.1,30.00,WSW,247,0.0,0.0,44,0.00,FEW,,0.00,WeatherDisplay:10.37,2014-09-22 15:26:00,
2014-09-22 11:31:00,68.5,46.3,30.00,WSW,247,0.0,0.0,45,0.00,FEW,,0.00,WeatherDisplay:10.37,2014-09-22 15:31:00,
2014-09-22 11:36:00,68.2,45.4,30.03,WSW,248,0.0,0.0,44,0.00,FEW,,0.00,WeatherDisplay:10.37,2014-09-22 15:36:00,
2014-09-22 11:41:00,68.2,45.4,30.03,WSW,247,0.0,0.0,44,0.00,FEW,,0.00,WeatherDisplay:10.37,2014-09-22 15:41:00,
2014-09-22 11:46:00,68.2,45.4,30.03,WSW,248,0.0,0.0,44,0.00,FEW,,0.00,WeatherDisplay:10.37,2014-09-22 15:46:00,
2014-09-22 11:51:00,68.9,44.2,30.03,WSW,247,0.0,0.0,41,0.00,FEW,,0.00,WeatherDisplay:10.37,2014-09-22 15:51:00,
2014-09-22 11:56:00,68.9,43.6,30.03,WSW,248,0.0,0.0,40,0.00,FEW,,0.00,WeatherDisplay:10.37,2014-09-22 15:56:00,
2014-09-22 12:01:00,68.9,42.9,30.03,WSW,248,0.0,0.0,39,0.00,FEW,,0.00,WeatherDisplay:10.37,2014-09-22 16:01:00,
2014-09-22 12:06:00,69.3,44.5,30.00,WSW,248,0.0,0.0,41,0.00,FEW,,0.00,WeatherDisplay:10.37,2014-09-22 16:06:00,
2014-09-22 12:11:00,69.6,41.5,30.00,WSW,247,0.0,0.0,36,0.00,FEW,,0.00,WeatherDisplay:10.37,2014-09-22 16:11:00,
2014-09-22 12:16:00,69.4,41.3,30.00,WSW,247,0.0,0.0,36,0.00,FEW,,0.00,WeatherDisplay:10.37,2014-09-22 16:16:00,
2014-09-22 12:21:00,69.4,41.3,30.00,WSW,247,0.0,0.0,36,0.00,FEW,,0.00,WeatherDisplay:10.37,2014-09-22 16:21:00,
2014-09-22 12:26:00,70.2,41.9,30.00,WSW,247,0.0,0.0,36,0.00,FEW,,0.00,WeatherDisplay:10.37,2014-09-22 16:26:00,
2014-09-22 12:31:00,70.3,42.1,30.00,WSW,248,0.0,0.0,36,0.00,FEW,,0.00,WeatherDisplay:10.37,2014-09-22 16:31:00,
2014-09-22 12:36:00,70.7,41.7,30.03,WSW,248,0.0,0.0,35,0.00,FEW,,0.00,WeatherDisplay:10.37,2014-09-22 16:36:00,
2014-09-22 12:41:00,71.6,42.5,30.03,WSW,248,0.0,0.0,35,0.00,FEW,,0.00,WeatherDisplay:10.37,2014-09-22 16:41:00,
2014-09-22 12:46:00,71.1,41.3,30.03,WSW,247,0.0,0.0,34,0.00,FEW,,0.00,WeatherDisplay:10.37,2014-09-22 16:46:00,
2014-09-22 12:51:00,70.5,41.5,30.00,WSW,248,0.0,0.0,35,0.00,FEW,,0.00,WeatherDisplay:10.37,2014-09-22 16:51:00,
2014-09-22 12:56:00,70.7,40.9,30.00,WSW,248,0.0,0.0,34,0.00,FEW,,0.00,WeatherDisplay:10.37,2014-09-22 16:56:00,
2014-09-22 13:01:00,70.9,41.9,30.00,WSW,248,0.0,0.0,35,0.00,FEW,,0.00,WeatherDisplay:10.37,2014-09-22 17:01:00,
2014-09-22 13:06:00,71.8,42.6,30.00,WSW,248,0.0,0.0,35,0.00,FEW,,0.00,WeatherDisplay:10.37,2014-09-22 17:06:00,
2014-09-22 13:11:00,72.3,42.4,30.00,WSW,248,0.0,0.0,34,0.00,FEW,,0.00,WeatherDisplay:10.37,2014-09-22 17:11:00,
2014-09-22 13:16:00,72.5,42.5,30.00,WSW,248,0.0,0.0,34,0.00,FEW,,0.00,WeatherDisplay:10.37,2014-09-22 17:16:00,
2014-09-22 13:21:00,72.7,42.7,30.00,WSW,248,0.0,0.0,34,0.00,FEW,,0.00,WeatherDisplay:10.37,2014-09-22 17:21:00,
2014-09-22 13:26:00,73.0,43.0,30.00,WSW,248,0.0,0.0,34,0.00,FEW,,0.00,WeatherDisplay:10.37,2014-09-22 17:26:00,
2014-09-22 13:32:00,72.9,41.3,30.00,WSW,248,0.0,0.0,32,0.00,FEW,,0.00,WeatherDisplay:10.37,2014-09-22 17:32:00,
2014-09-22 13:37:00,72.0,40.5,30.00,WSW,248,0.0,0.0,32,0.00,FEW,,0.00,WeatherDisplay:10.37,2014-09-22 17:37:00,
2014-09-22 13:42:00,72.3,42.4,30.00,WSW,248,0.0,0.0,34,0.00,FEW,,0.00,WeatherDisplay:10.37,2014-09-22 17:42:00,
2014-09-22 13:47:00,72.7,41.1,30.00,WSW,248,0.0,0.0,32,0.00,FEW,,0.00,WeatherDisplay:10.37,2014-09-22 17:47:00,
2014-09-22 13:52:00,73.4,41.7,30.00,WSW,248,0.0,0.0,32,0.00,FEW,,0.00,WeatherDisplay:10.37,2014-09-22 17:52:00,
2014-09-22 13:57:00,73.0,40.6,30.00,WSW,248,0.0,0.0,31,0.00,FEW,,0.00,WeatherDisplay:10.37,2014-09-22 17:57:00,
2014-09-22 14:02:00,72.9,41.3,30.00,WSW,248,0.0,0.0,32,0.00,SCT,,0.00,WeatherDisplay:10.37,2014-09-22 18:02:00,
2014-09-22 14:07:00,72.3,40.8,30.00,WSW,248,0.0,0.0,32,0.00,SCT,,0.00,WeatherDisplay:10.37,2014-09-22 18:07:00,
2014-09-22 14:13:00,72.7,41.1,30.00,WSW,248,0.0,0.0,32,0.00,SCT,,0.00,WeatherDisplay:10.37,2014-09-22 18:13:00,
2014-09-22 14:18:00,73.2,41.6,30.00,WSW,248,0.0,0.0,32,0.00,SCT,,0.00,WeatherDisplay:10.37,2014-09-22 18:18:00,
2014-09-22 14:23:00,74.1,42.4,30.00,WSW,248,0.0,0.0,32,0.00,SCT,,0.00,WeatherDisplay:10.37,2014-09-22 18:23:00,
2014-09-22 14:28:00,73.8,41.2,30.00,WSW,247,0.0,0.0,31,0.00,SCT,,0.00,WeatherDisplay:10.37,2014-09-22 18:28:00,
2014-09-22 14:33:00,74.3,41.7,30.00,WSW,248,0.0,0.0,31,0.00,SCT,,0.00,WeatherDisplay:10.37,2014-09-22 18:33:00,
2014-09-22 14:38:00,74.7,42.0,30.00,WSW,247,0.0,0.0,31,0.00,SCT,,0.00,WeatherDisplay:10.37,2014-09-22 18:38:00,
2014-09-22 14:43:00,74.5,41.9,30.00,WSW,248,0.0,0.0,31,0.00,SCT,,0.00,WeatherDisplay:10.37,2014-09-22 18:43:00,
2014-09-22 14:48:00,74.5,41.9,30.00,WSW,248,0.0,0.0,31,0.00,SCT,,0.00,WeatherDisplay:10.37,2014-09-22 18:48:00,
2014-09-22 14:53:00,75.2,42.5,30.00,WSW,248,0.0,0.0,31,0.00,SCT,,0.00,WeatherDisplay:10.37,2014-09-22 18:53:00,
2014-09-22 14:58:00,76.1,42.4,30.00,WSW,247,0.0,0.0,30,0.00,SCT,,0.00,WeatherDisplay:10.37,2014-09-22 18:58:00,
2014-09-22 15:03:00,75.4,41.8,30.00,WSW,247,0.0,0.0,30,0.00,SCT,,0.00,WeatherDisplay:10.37,2014-09-22 19:03:00,
2014-09-22 15:08:00,75.2,41.6,30.00,WSW,248,0.0,0.0,30,0.00,SCT,,0.00,WeatherDisplay:10.37,2014-09-22 19:08:00,
2014-09-22 15:13:00,74.7,41.2,30.00,WSW,247,0.0,0.0,30,0.00,SCT,,0.00,WeatherDisplay:10.37,2014-09-22 19:13:00,
2014-09-22 15:18:00,74.5,38.3,30.00,WSW,247,0.0,0.0,27,0.00,SCT,,0.00,WeatherDisplay:10.37,2014-09-22 19:18:00,
2014-09-22 15:23:00,74.5,41.0,30.00,WSW,248,0.0,0.0,30,0.00,SCT,,0.00,WeatherDisplay:10.37,2014-09-22 19:23:00,
2014-09-22 15:28:00,73.9,37.8,30.00,WSW,247,0.0,0.0,27,0.00,SCT,,0.00,WeatherDisplay:10.37,2014-09-22 19:28:00,
2014-09-22 15:33:00,73.6,37.5,30.00,WSW,247,0.0,0.0,27,0.00,SCT,,0.00,WeatherDisplay:10.37,2014-09-22 19:33:00,
2014-09-22 15:38:00,73.2,40.8,30.00,WSW,247,0.0,0.0,31,0.00,SCT,,0.00,WeatherDisplay:10.37,2014-09-22 19:38:00,
2014-09-22 15:43:00,74.3,40.8,30.00,WSW,248,0.0,0.0,30,0.00,SCT,,0.00,WeatherDisplay:10.37,2014-09-22 19:43:00,
2014-09-22 15:48:00,73.6,37.5,30.00,WSW,247,0.0,0.0,27,0.00,SCT,,0.00,WeatherDisplay:10.37,2014-09-22 19:48:00,
2014-09-22 15:53:00,73.0,37.1,30.00,WSW,247,0.0,0.0,27,0.00,SCT,,0.00,WeatherDisplay:10.37,2014-09-22 19:53:00,
2014-09-22 15:58:00,73.9,41.4,30.00,WSW,247,0.0,0.0,31,0.00,SCT,,0.00,WeatherDisplay:10.37,2014-09-22 19:58:00,
2014-09-22 16:03:00,73.9,41.4,30.00,WSW,247,0.0,0.0,31,0.00,SCT,,0.00,WeatherDisplay:10.37,2014-09-22 20:03:00,
2014-09-22 16:08:00,73.4,40.9,30.00,WSW,247,0.0,0.0,31,0.00,SCT,,0.00,WeatherDisplay:10.37,2014-09-22 20:08:00,
2014-09-22 16:09:00,73.6,41.1,30.00,WSW,247,0.0,0.0,31,0.00,SCT,,0.00,WeatherDisplay:10.37,2014-09-22 20:09:00,
2014-09-22 16:14:00,74.3,40.8,30.00,WSW,247,0.0,0.0,30,0.00,SCT,,0.00,WeatherDisplay:10.37,2014-09-22 20:14:00,
2014-09-22 16:19:00,74.5,41.0,30.00,WSW,248,0.0,0.0,30,0.00,SCT,,0.00,WeatherDisplay:10.37,2014-09-22 20:19:00,
2014-09-22 16:24:00,74.8,41.3,30.00,WSW,247,0.0,0.0,30,0.00,SCT,,0.00,WeatherDisplay:10.37,2014-09-22 20:24:00,
2014-09-22 16:29:00,74.7,38.4,30.00,WSW,247,0.0,0.0,27,0.00,SCT,,0.00,WeatherDisplay:10.37,2014-09-22 20:29:00,
2014-09-22 16:34:00,73.9,37.8,30.00,WSW,247,0.0,0.0,27,0.00,SCT,,0.00,WeatherDisplay:10.37,2014-09-22 20:34:00,
2014-09-22 16:39:00,74.1,38.9,30.00,WSW,247,0.0,0.0,28,0.00,SCT,,0.00,WeatherDisplay:10.37,2014-09-22 20:39:00,
2014-09-22 16:44:00,74.5,41.0,30.00,WSW,247,0.0,0.0,30,0.00,SCT,,0.00,WeatherDisplay:10.37,2014-09-22 20:44:00,
2014-09-22 16:49:00,73.4,37.4,30.00,WSW,247,0.0,0.0,27,0.00,SCT,,0.00,WeatherDisplay:10.37,2014-09-22 20:49:00,
2014-09-22 16:54:00,72.3,37.4,30.00,WSW,247,0.0,0.0,28,0.00,SCT,,0.00,WeatherDisplay:10.37,2014-09-22 20:54:00,
2014-09-22 16:59:00,71.2,39.0,30.00,WSW,247,0.0,0.0,31,0.00,SCT,,0.00,WeatherDisplay:10.37,2014-09-22 20:59:00,
2014-09-22 17:04:00,70.3,39.1,30.00,WSW,247,0.0,0.0,32,0.00,SCT,,0.00,WeatherDisplay:10.37,2014-09-22 21:04:00,
2014-09-22 17:09:00,70.0,38.8,30.03,WSW,247,0.0,0.0,32,0.00,SCT,,0.00,WeatherDisplay:10.37,2014-09-22 21:09:00,
2014-09-22 17:14:00,69.8,38.6,30.03,WSW,247,0.0,0.0,32,0.00,SCT,,0.00,WeatherDisplay:10.37,2014-09-22 21:14:00,
2014-09-22 17:20:00,69.8,38.6,30.03,WSW,247,0.0,0.0,32,0.00,SCT,,0.00,WeatherDisplay:10.37,2014-09-22 21:20:00,
2014-09-22 17:25:00,69.8,38.6,30.03,WSW,247,0.0,0.0,32,0.00,SCT,,0.00,WeatherDisplay:10.37,2014-09-22 21:25:00,
2014-09-22 17:30:00,69.8,38.6,30.03,WSW,247,0.0,0.0,32,0.00,SCT,,0.00,WeatherDisplay:10.37,2014-09-22 21:30:00,
2014-09-22 17:35:00,69.6,40.0,30.03,WSW,247,0.0,0.0,34,0.00,SCT,,0.00,WeatherDisplay:10.37,2014-09-22 21:35:00,
2014-09-22 17:40:00,68.9,39.4,30.03,WSW,247,0.0,0.0,34,0.00,SCT,,0.00,WeatherDisplay:10.37,2014-09-22 21:40:00,
2014-09-22 17:45:00,68.4,39.6,30.03,WSW,247,0.0,0.0,35,0.00,SCT,,0.00,WeatherDisplay:10.37,2014-09-22 21:45:00,
2014-09-22 17:48:00,68.4,41.8,30.03,WSW,247,0.0,0.0,38,0.00,SCT,,0.00,WeatherDisplay:10.37,2014-09-22 21:48:00,
2014-09-22 17:53:00,68.0,41.4,30.03,WSW,247,0.0,0.0,38,0.00,SCT,,0.00,WeatherDisplay:10.37,2014-09-22 21:53:00,
2014-09-22 17:58:00,67.8,41.3,30.03,WSW,247,0.0,0.0,38,0.00,SCT,,0.00,WeatherDisplay:10.37,2014-09-22 21:58:00,
2014-09-22 18:03:00,67.3,41.5,30.03,WSW,247,0.0,0.0,39,0.00,BKN,,0.00,WeatherDisplay:10.37,2014-09-22 22:03:00,
2014-09-22 18:08:00,66.9,42.4,30.06,WSW,247,0.0,0.0,41,0.00,BKN,,0.00,WeatherDisplay:10.37,2014-09-22 22:08:00,
2014-09-22 18:09:00,66.9,42.4,30.06,WSW,247,0.0,0.0,41,0.00,BKN,,0.00,WeatherDisplay:10.37,2014-09-22 22:09:00,
2014-09-22 18:14:00,66.6,42.1,30.06,WSW,247,0.0,0.0,41,0.00,BKN,,0.00,WeatherDisplay:10.37,2014-09-22 22:14:00,
2014-09-22 18:19:00,66.2,41.2,30.06,WSW,247,0.0,0.0,40,0.00,BKN,,0.00,WeatherDisplay:10.37,2014-09-22 22:19:00,
2014-09-22 18:24:00,65.8,40.8,30.06,WSW,247,0.0,0.0,40,0.00,BKN,,0.00,WeatherDisplay:10.37,2014-09-22 22:24:00,
2014-09-22 18:29:00,65.7,41.3,30.06,WSW,247,0.0,0.0,41,0.00,BKN,,0.00,WeatherDisplay:10.37,2014-09-22 22:29:00,
2014-09-22 18:34:00,65.3,41.0,30.06,WSW,247,0.0,0.0,41,0.00,BKN,,0.00,WeatherDisplay:10.37,2014-09-22 22:34:00,
2014-09-22 18:39:00,64.9,42.5,30.06,WSW,248,0.0,0.0,44,0.00,BKN,,0.00,WeatherDisplay:10.37,2014-09-22 22:39:00,
2014-09-22 18:44:00,64.8,42.9,30.06,WSW,247,0.0,0.0,45,0.00,BKN,,0.00,WeatherDisplay:10.37,2014-09-22 22:44:00,
2014-09-22 18:49:00,64.4,43.2,30.06,WSW,247,0.0,0.0,46,0.00,BKN,,0.00,WeatherDisplay:10.37,2014-09-22 22:49:00,
2014-09-22 18:54:00,64.2,43.0,30.06,WSW,247,0.0,0.0,46,0.00,BKN,,0.00,WeatherDisplay:10.37,2014-09-22 22:54:00,
2014-09-22 19:00:00,63.9,42.7,30.06,WSW,247,0.0,0.0,46,0.00,BKN,,0.00,WeatherDisplay:10.37,2014-09-22 23:00:00,
2014-09-22 19:05:00,63.5,42.3,30.06,WSW,247,0.0,0.0,46,0.00,BKN,,0.00,WeatherDisplay:10.37,2014-09-22 23:05:00,
2014-09-22 19:10:00,63.3,42.7,30.09,WSW,247,0.0,0.0,47,0.00,BKN,,0.00,WeatherDisplay:10.37,2014-09-22 23:10:00,
2014-09-22 19:15:00,63.0,42.4,30.09,WSW,247,0.0,0.0,47,0.00,BKN,,0.00,WeatherDisplay:10.37,2014-09-22 23:15:00,
2014-09-22 19:20:00,62.6,43.2,30.09,WSW,247,0.0,0.0,49,0.00,BKN,,0.00,WeatherDisplay:10.37,2014-09-22 23:20:00,
2014-09-22 19:25:00,62.4,43.0,30.09,WSW,247,0.0,0.0,49,0.00,BKN,,0.00,WeatherDisplay:10.37,2014-09-22 23:25:00,
2014-09-22 19:30:00,62.2,42.8,30.09,WSW,247,0.0,0.0,49,0.00,BKN,,0.00,WeatherDisplay:10.37,2014-09-22 23:30:00,
2014-09-22 19:35:00,62.1,42.7,30.09,WSW,247,0.0,0.0,49,0.00,BKN,,0.00,WeatherDisplay:10.37,2014-09-22 23:35:00,
2014-09-22 19:40:00,62.1,43.2,30.09,WSW,247,0.0,0.0,50,0.00,BKN,,0.00,WeatherDisplay:10.37,2014-09-22 23:40:00,
2014-09-22 19:45:00,61.7,42.3,30.09,WSW,247,0.0,0.0,49,0.00,BKN,,0.00,WeatherDisplay:10.37,2014-09-22 23:45:00,
2014-09-22 19:50:00,61.7,42.3,30.09,WSW,247,0.0,0.0,49,0.00,BKN,,0.00,WeatherDisplay:10.37,2014-09-22 23:50:00,
2014-09-22 19:55:00,61.3,42.0,30.09,WSW,247,0.0,0.0,49,0.00,BKN,,0.00,WeatherDisplay:10.37,2014-09-22 23:55:00,
2014-09-22 20:01:00,61.0,42.2,30.09,WSW,247,0.0,0.0,50,0.00,BKN,,0.00,WeatherDisplay:10.37,2014-09-23 00:01:00,
2014-09-22 20:06:00,60.8,42.0,30.09,WSW,247,0.0,0.0,50,0.00,BKN,,0.00,WeatherDisplay:10.37,2014-09-23 00:06:00,
2014-09-22 20:11:00,60.6,41.9,30.12,WSW,247,0.0,0.0,50,0.00,BKN,,0.00,WeatherDisplay:10.37,2014-09-23 00:11:00,
2014-09-22 20:16:00,60.3,41.5,30.12,WSW,247,0.0,0.0,50,0.00,BKN,,0.00,WeatherDisplay:10.37,2014-09-23 00:16:00,
2014-09-22 20:21:00,60.1,41.9,30.12,WSW,247,0.0,0.0,51,0.00,BKN,,0.00,WeatherDisplay:10.37,2014-09-23 00:21:00,
2014-09-22 20:26:00,59.9,41.7,30.12,WSW,247,0.0,0.0,51,0.00,BKN,,0.00,WeatherDisplay:10.37,2014-09-23 00:26:00,
2014-09-22 20:31:00,59.7,42.1,30.12,WSW,247,0.0,0.0,52,0.00,BKN,,0.00,WeatherDisplay:10.37,2014-09-23 00:31:00,
2014-09-22 20:36:00,59.4,42.2,30.15,WSW,247,0.0,0.0,53,0.00,BKN,,0.00,WeatherDisplay:10.37,2014-09-23 00:36:00,
2014-09-22 20:41:00,59.2,42.0,30.15,WSW,247,0.0,0.0,53,0.00,BKN,,0.00,WeatherDisplay:10.37,2014-09-23 00:41:00,
2014-09-22 20:46:00,58.8,42.2,30.15,WSW,247,0.0,0.0,54,0.00,BKN,,0.00,WeatherDisplay:10.37,2014-09-23 00:46:00,
2014-09-22 20:52:00,58.6,43.0,30.15,WSW,247,0.0,0.0,56,0.00,BKN,,0.00,WeatherDisplay:10.37,2014-09-23 00:52:00,
2014-09-22 20:57:00,58.1,42.9,30.15,WSW,247,0.0,0.0,57,0.00,BKN,,0.00,WeatherDisplay:10.37,2014-09-23 00:57:00,
2014-09-22 21:02:00,57.7,42.6,30.15,WSW,247,0.0,0.0,57,0.00,BKN,,0.00,WeatherDisplay:10.37,2014-09-23 01:02:00,
2014-09-22 21:07:00,57.4,42.7,30.15,WSW,247,0.0,0.0,58,0.00,BKN,,0.00,WeatherDisplay:10.37,2014-09-23 01:07:00,
2014-09-22 21:12:00,57.0,42.8,30.15,WSW,247,0.0,0.0,59,0.00,BKN,,0.00,WeatherDisplay:10.37,2014-09-23 01:12:00,
2014-09-22 21:17:00,56.7,42.5,30.15,WSW,247,0.0,0.0,59,0.00,BKN,,0.00,WeatherDisplay:10.37,2014-09-23 01:17:00,
2014-09-22 21:22:00,56.7,42.9,30.18,WSW,247,0.0,0.0,60,0.00,BKN,,0.00,WeatherDisplay:10.37,2014-09-23 01:22:00,
2014-09-22 21:27:00,56.5,43.2,30.18,WSW,247,0.0,0.0,61,0.00,BKN,,0.00,WeatherDisplay:10.37,2014-09-23 01:27:00,
2014-09-22 21:33:00,56.1,42.8,30.18,WSW,247,0.0,0.0,61,0.00,BKN,,0.00,WeatherDisplay:10.37,2014-09-23 01:33:00,
2014-09-22 21:38:00,55.9,43.1,30.18,WSW,247,0.0,0.0,62,0.00,BKN,,0.00,WeatherDisplay:10.37,2014-09-23 01:38:00,
2014-09-22 21:43:00,55.8,43.3,30.18,WSW,247,0.0,0.0,63,0.00,BKN,,0.00,WeatherDisplay:10.37,2014-09-23 01:43:00,
2014-09-22 21:48:00,55.6,43.2,30.18,WSW,247,0.0,0.0,63,0.00,BKN,,0.00,WeatherDisplay:10.37,2014-09-23 01:48:00,
2014-09-22 21:53:00,55.4,43.8,30.18,WSW,247,0.0,0.0,65,0.00,BKN,,0.00,WeatherDisplay:10.37,2014-09-23 01:53:00,
2014-09-22 21:58:00,55.2,43.2,30.18,WSW,247,0.0,0.0,64,0.00,BKN,,0.00,WeatherDisplay:10.37,2014-09-23 01:58:00,
2014-09-22 22:03:00,55.2,43.2,30.18,WSW,247,0.0,0.0,64,0.00,FEW,,0.00,WeatherDisplay:10.37,2014-09-23 02:03:00,
2014-09-22 22:08:00,55.0,43.9,30.18,WSW,247,0.0,0.0,66,0.00,FEW,,0.00,WeatherDisplay:10.37,2014-09-23 02:08:00,
2014-09-22 22:13:00,54.7,43.5,30.18,WSW,247,0.0,0.0,66,0.00,FEW,,0.00,WeatherDisplay:10.37,2014-09-23 02:13:00,
2014-09-22 22:18:00,54.3,43.2,30.18,WSW,247,0.0,0.0,66,0.00,FEW,,0.00,WeatherDisplay:10.37,2014-09-23 02:18:00,
2014-09-22 22:23:00,54.0,43.2,30.21,WSW,247,0.0,0.0,67,0.00,FEW,,0.00,WeatherDisplay:10.37,2014-09-23 02:23:00,
2014-09-22 22:28:00,53.8,43.1,30.21,WSW,247,0.0,0.0,67,0.00,FEW,,0.00,WeatherDisplay:10.37,2014-09-23 02:28:00,
2014-09-22 22:34:00,53.6,43.3,30.21,WSW,247,0.0,0.0,68,0.00,FEW,,0.00,WeatherDisplay:10.37,2014-09-23 02:34:00,
2014-09-22 22:39:00,53.6,43.7,30.21,WSW,247,0.0,0.0,69,0.00,FEW,,0.00,WeatherDisplay:10.37,2014-09-23 02:39:00,
2014-09-22 22:44:00,53.6,44.4,30.21,WSW,247,0.0,0.0,71,0.00,FEW,,0.00,WeatherDisplay:10.37,2014-09-23 02:44:00,
2014-09-22 22:49:00,53.6,45.2,30.21,WSW,247,0.0,0.0,73,0.00,FEW,,0.00,WeatherDisplay:10.37,2014-09-23 02:49:00,
2014-09-22 22:54:00,53.2,44.4,30.21,WSW,247,0.0,0.0,72,0.00,FEW,,0.00,WeatherDisplay:10.37,2014-09-23 02:54:00,
2014-09-22 22:59:00,53.1,44.3,30.21,WSW,247,0.0,0.0,72,0.00,FEW,,0.00,WeatherDisplay:10.37,2014-09-23 02:59:00,
2014-09-22 23:04:00,53.1,45.0,30.21,WSW,247,0.0,0.0,74,0.00,FEW,,0.00,WeatherDisplay:10.37,2014-09-23 03:04:00,
2014-09-22 23:09:00,53.1,45.0,30.21,WSW,247,0.0,0.0,74,0.00,FEW,,0.00,WeatherDisplay:10.37,2014-09-23 03:09:00,
2014-09-22 23:14:00,53.1,45.0,30.21,WSW,247,0.0,0.0,74,0.00,FEW,,0.00,WeatherDisplay:10.37,2014-09-23 03:14:00,
2014-09-22 23:19:00,53.1,45.3,30.21,WSW,247,0.0,0.0,75,0.00,FEW,,0.00,WeatherDisplay:10.37,2014-09-23 03:19:00,